createdAt,value
2022-09-12T00:00:52.543Z,100671.91
2022-09-12T00:05:55.441Z,100660.75
2022-09-12T00:10:58.336Z,100657.63
2022-09-12T00:16:02.997Z,100656.50
2022-09-12T00:21:06.427Z,100645.53
2022-09-12T00:26:09.737Z,100648.25
2022-09-12T00:31:16.235Z,100648.84
2022-09-12T00:36:22.845Z,100639.28
2022-09-12T00:41:27.810Z,100648.13
2022-09-12T00:46:40.280Z,100640.28
2022-09-12T00:51:47.646Z,100638.16
2022-09-12T00:56:54.150Z,100641.16
2022-09-12T01:01:59.077Z,100643.28
2022-09-12T01:07:02.032Z,100638.78
2022-09-12T01:12:06.211Z,100634.53
2022-09-12T01:17:13.779Z,100638.19
2022-09-12T01:22:37.062Z,100629.53
2022-09-12T01:28:03.528Z,100629.91
2022-09-12T01:33:39.538Z,100621.66
2022-09-12T01:38:48.729Z,100623.03
2022-09-12T01:43:59.727Z,100617.63
2022-09-12T01:49:10.780Z,100612.81
2022-09-12T01:54:19.699Z,100615.19
2022-09-12T01:59:28.641Z,100603.13
2022-09-12T02:04:37.973Z,100596.66
2022-09-12T02:09:47.173Z,100595.63
2022-09-12T02:14:54.463Z,100589.66
2022-09-12T02:20:04.329Z,100585.97
2022-09-12T02:25:10.392Z,100589.06
2022-09-12T02:30:16.708Z,100590.66
2022-09-12T02:35:32.917Z,100590.22
2022-09-12T02:40:37.020Z,100591.97
2022-09-12T02:45:39.894Z,100596.75
2022-09-12T02:50:44.621Z,100586.38
2022-09-12T02:55:47.999Z,100591.03
2022-09-12T03:00:56.000Z,100583.22
2022-09-12T03:06:02.105Z,100592.41
2022-09-12T03:11:34.084Z,100589.84
2022-09-12T03:16:44.819Z,100576.66
2022-09-12T03:22:00.154Z,100578.03
2022-09-12T03:27:10.942Z,100566.22
2022-09-12T03:32:13.751Z,100572.41
2022-09-12T03:37:17.989Z,100562.81
2022-09-12T03:42:20.730Z,100574.59
2022-09-12T03:47:23.470Z,100567.22
2022-09-12T03:52:27.680Z,100573.75
2022-09-12T03:57:30.742Z,100570.31
2022-09-12T04:02:33.609Z,100574.13
2022-09-12T04:07:37.820Z,100573.53
2022-09-12T04:12:40.931Z,100581.25
2022-09-12T04:17:43.720Z,100580.69
2022-09-12T04:22:47.841Z,100572.97
2022-09-12T04:27:50.652Z,100567.47
2022-09-12T04:32:53.434Z,100566.00
2022-09-12T04:37:57.722Z,100563.06
2022-09-12T04:43:00.713Z,100577.84
2022-09-12T04:48:03.804Z,100579.09
2022-09-12T04:53:07.923Z,100572.44
2022-09-12T04:58:10.733Z,100568.78
2022-09-12T05:03:14.192Z,100570.44
2022-09-12T05:08:18.672Z,100564.03
2022-09-12T05:13:22.124Z,100559.25
2022-09-12T05:18:26.497Z,100569.91
2022-09-12T05:23:31.533Z,100562.88
2022-09-12T05:28:36.371Z,100551.72
2022-09-12T05:33:40.769Z,100559.47
2022-09-12T05:38:45.359Z,100561.19
2022-09-12T05:43:49.128Z,100557.16
2022-09-12T05:48:55.843Z,100563.78
2022-09-12T05:54:03.243Z,100560.88
2022-09-12T05:59:07.945Z,100564.91
2022-09-12T06:04:11.012Z,100565.97
2022-09-12T06:09:16.805Z,100568.75
2022-09-12T06:14:19.819Z,100573.47
2022-09-12T06:19:25.059Z,100563.50
2022-09-12T06:24:29.396Z,100558.63
2022-09-12T06:29:32.883Z,100550.84
2022-09-12T06:34:36.530Z,100557.66
2022-09-12T06:39:40.713Z,100542.88
2022-09-12T06:44:44.354Z,100542.13
2022-09-12T06:49:47.115Z,100535.28
2022-09-12T06:54:51.282Z,100535.97
2022-09-12T06:59:54.163Z,100539.16
2022-09-12T07:04:56.986Z,100534.66
2022-09-12T07:10:01.137Z,100531.34
2022-09-12T07:15:03.943Z,100543.00
2022-09-12T07:20:07.865Z,100539.25
2022-09-12T07:25:12.138Z,100542.97
2022-09-12T07:30:14.973Z,100540.69
2022-09-12T07:35:18.122Z,100540.38
2022-09-12T07:40:22.980Z,100540.47
2022-09-12T07:45:26.955Z,100542.31
2022-09-12T07:50:29.858Z,100542.28
2022-09-12T07:55:34.247Z,100544.31
2022-09-12T08:00:37.798Z,100538.13
2022-09-12T08:05:40.916Z,100540.25
2022-09-12T08:10:45.134Z,100539.81
2022-09-12T08:15:47.980Z,100544.56
2022-09-12T08:20:57.660Z,100543.72
2022-09-12T08:26:06.163Z,100548.38
2022-09-12T08:31:12.235Z,100553.09
2022-09-12T08:36:16.949Z,100549.84
2022-09-12T08:41:30.379Z,100544.09
2022-09-12T08:46:37.564Z,100524.97
2022-09-12T08:51:41.749Z,100536.38
2022-09-12T08:56:47.730Z,100534.13
2022-09-12T09:01:58.390Z,100530.47
2022-09-12T09:07:33.106Z,100535.00
2022-09-12T09:12:47.617Z,100530.63
2022-09-12T09:17:55.060Z,100527.66
2022-09-12T09:23:03.427Z,100526.22
2022-09-12T09:28:15.157Z,100523.22
2022-09-12T09:33:23.508Z,100519.03
2022-09-12T09:38:32.715Z,100508.53
2022-09-12T09:43:39.375Z,100507.00
2022-09-12T09:48:46.130Z,100507.41
2022-09-12T09:53:53.219Z,100503.88
2022-09-12T09:58:57.455Z,100500.31
2022-09-12T10:04:00.626Z,100495.38
2022-09-12T10:09:18.751Z,100500.19
2022-09-12T10:14:38.482Z,100493.03
2022-09-12T10:19:41.563Z,100491.28
2022-09-12T10:24:50.180Z,100487.38
2022-09-12T10:30:01.631Z,100481.06
2022-09-12T10:35:09.141Z,100478.38
2022-09-12T10:40:25.237Z,100468.00
2022-09-12T10:45:32.410Z,100460.78
2022-09-12T10:50:38.426Z,100459.16
2022-09-12T10:55:46.825Z,100451.50
2022-09-12T11:01:03.253Z,100459.81
2022-09-12T11:06:07.825Z,100460.63
2022-09-12T11:11:25.031Z,100443.69
2022-09-12T11:16:43.132Z,100445.41
2022-09-12T11:22:01.827Z,100428.41
2022-09-12T11:27:20.805Z,100433.72
2022-09-12T11:32:41.887Z,100430.53
2022-09-12T11:38:07.640Z,100413.00
2022-09-12T11:43:21.804Z,100416.78
2022-09-12T11:48:39.427Z,100409.50
2022-09-12T11:53:44.679Z,100410.59
2022-09-12T11:58:56.756Z,100403.38
2022-09-12T12:04:07.625Z,100397.03
2022-09-12T12:09:12.795Z,100394.88
2022-09-12T12:14:18.921Z,100385.78
2022-09-12T12:19:34.836Z,100384.53
2022-09-12T12:25:04.777Z,100378.47
2022-09-12T12:30:59.720Z,100373.78
2022-09-12T12:36:09.843Z,100376.56
2022-09-12T12:41:44.758Z,100360.81
2022-09-12T12:47:15.629Z,100361.78
2022-09-12T12:52:20.800Z,100348.09
2022-09-12T12:57:42.204Z,100351.44
2022-09-12T13:02:53.528Z,100339.31
2022-09-12T13:08:01.747Z,100335.53
2022-09-12T13:13:08.615Z,100331.19
2022-09-12T13:18:14.598Z,100313.34
2022-09-12T13:23:27.875Z,100305.28
2022-09-12T13:28:31.860Z,100285.84
2022-09-12T13:33:39.102Z,100285.25
2022-09-12T13:38:55.397Z,100286.16
2022-09-12T13:43:58.401Z,100280.31
2022-09-12T13:49:07.759Z,100273.91
2022-09-12T13:54:24.319Z,100267.50
2022-09-12T13:59:28.053Z,100265.28
2022-09-12T14:04:48.496Z,100254.56
2022-09-12T14:09:57.023Z,100266.28
2022-09-12T14:15:00.036Z,100250.19
2022-09-12T14:20:07.131Z,100219.22
2022-09-12T14:25:17.221Z,100232.34
2022-09-12T14:30:26.510Z,100224.44
2022-09-12T14:35:29.602Z,100223.56
2022-09-12T14:40:42.762Z,100211.06
2022-09-12T14:45:52.611Z,100210.06
2022-09-12T14:50:55.889Z,100207.75
2022-09-12T14:56:09.019Z,100201.97
2022-09-12T15:01:27.924Z,100200.75
2022-09-12T15:06:33.210Z,100197.28
2022-09-12T15:11:37.413Z,100192.66
2022-09-12T15:16:40.323Z,100196.44
2022-09-12T15:21:43.204Z,100191.22
2022-09-12T15:26:47.556Z,100183.19
2022-09-12T15:31:52.560Z,100182.44
2022-09-12T15:36:55.565Z,100172.53
2022-09-12T15:41:59.771Z,100168.31
2022-09-12T15:47:02.657Z,100169.13
2022-09-12T15:52:05.687Z,100158.88
2022-09-12T15:57:10.646Z,100166.06
2022-09-12T16:02:13.550Z,100161.09
2022-09-12T16:07:16.449Z,100163.41
2022-09-12T16:12:20.666Z,100153.53
2022-09-12T16:17:24.015Z,100158.44
2022-09-12T16:22:26.895Z,100144.84
2022-09-12T16:27:31.171Z,100130.84
2022-09-12T16:32:34.579Z,100131.28
2022-09-12T16:37:38.004Z,100119.28
2022-09-12T16:42:43.884Z,100116.13
2022-09-12T16:47:46.840Z,100112.72
2022-09-12T16:52:49.839Z,100112.31
2022-09-12T16:57:54.177Z,100102.03
2022-09-12T17:02:57.197Z,100102.94
2022-09-12T17:08:00.642Z,100098.56
2022-09-12T17:13:04.897Z,100100.91
2022-09-12T17:18:07.955Z,100091.44
2022-09-12T17:23:10.831Z,100080.53
2022-09-12T17:28:15.736Z,100076.53
2022-09-12T17:33:18.745Z,100081.72
2022-09-12T17:38:25.278Z,100078.31
2022-09-12T17:43:29.998Z,100075.94
2022-09-12T17:48:33.152Z,100082.34
2022-09-12T17:53:36.102Z,100069.88
2022-09-12T17:58:40.612Z,100076.06
2022-09-12T18:03:43.422Z,100079.78
2022-09-12T18:08:46.434Z,100081.50
2022-09-12T18:13:50.903Z,100068.72
2022-09-12T18:18:53.855Z,100068.09
2022-09-12T18:23:58.951Z,100066.75
2022-09-12T18:29:03.293Z,100074.41
2022-09-12T18:34:07.766Z,100061.94
2022-09-12T18:39:11.247Z,100065.19
2022-09-12T18:44:15.467Z,100058.94
2022-09-12T18:49:18.468Z,100061.13
2022-09-12T18:54:21.687Z,100054.28
2022-09-12T18:59:26.162Z,100049.19
2022-09-12T19:04:29.165Z,100044.31
2022-09-12T19:09:31.974Z,100042.63
2022-09-12T19:14:36.318Z,100037.09
2022-09-12T19:19:40.648Z,100031.22
2022-09-12T19:24:43.645Z,100038.16
2022-09-12T19:29:47.929Z,100034.13
2022-09-12T19:34:50.903Z,100023.63
2022-09-12T19:39:53.777Z,100016.41
2022-09-12T19:44:57.968Z,100017.28
2022-09-12T19:50:00.823Z,100021.53
2022-09-12T19:55:03.891Z,100016.34
2022-09-12T20:00:09.600Z,100007.41
2022-09-12T20:05:12.621Z,100007.28
2022-09-12T20:10:15.718Z,99999.50
2022-09-12T20:15:20.136Z,99992.09
2022-09-12T20:20:25.084Z,99995.38
2022-09-12T20:25:27.898Z,99997.88
2022-09-12T20:30:32.311Z,99986.78
2022-09-12T20:35:35.154Z,99965.91
2022-09-12T20:40:38.092Z,99967.19
2022-09-12T20:45:42.932Z,99977.00
2022-09-12T20:50:45.725Z,99978.59
2022-09-12T20:55:52.330Z,99977.88
2022-09-12T21:00:56.536Z,99975.34
2022-09-12T21:05:59.403Z,99963.50
2022-09-12T21:11:02.678Z,99950.28
2022-09-12T21:16:09.100Z,99940.63
2022-09-12T21:21:13.015Z,99930.03
2022-09-12T21:26:15.865Z,99933.56
2022-09-12T21:38:07.937Z,99916.41
2022-09-12T21:43:13.042Z,99919.81
2022-09-12T21:48:15.896Z,99907.25
2022-09-12T21:53:19.887Z,99901.31
2022-09-12T21:58:22.673Z,99914.50
2022-09-12T22:03:25.998Z,99913.81
2022-09-12T22:08:31.208Z,99910.34
2022-09-12T22:13:33.952Z,99918.47
2022-09-12T22:18:38.020Z,99911.44
2022-09-12T22:23:59.690Z,99900.75
2022-09-12T22:29:02.476Z,99910.16
2022-09-12T22:34:05.352Z,99914.06
2022-09-12T22:39:09.769Z,99911.56
2022-09-12T22:44:12.816Z,99897.97
2022-09-12T22:49:15.561Z,99878.25
2022-09-12T22:54:19.848Z,99862.16
2022-09-12T22:59:22.622Z,99870.66
2022-09-12T23:04:25.371Z,99879.63
2022-09-12T23:09:34.630Z,99858.75
2022-09-12T23:14:38.085Z,99871.19
2022-09-12T23:19:40.841Z,99868.31
2022-09-12T23:24:45.002Z,99864.44
2022-09-12T23:29:52.386Z,99872.69
2022-09-12T23:34:55.169Z,99867.09
2022-09-12T23:39:59.288Z,99870.19
2022-09-12T23:45:02.077Z,99872.69
2022-09-12T23:50:05.516Z,99872.66
2022-09-12T23:55:10.529Z,99853.47
